createdAt,value
2018-05-17T00:01:15.331Z,90.80
2018-05-17T00:03:42.890Z,90.60
2018-05-17T00:06:10.522Z,90.60
2018-05-17T00:08:38.861Z,90.80
2018-05-17T00:11:06.430Z,90.70
2018-05-17T00:13:34.030Z,90.90
2018-05-17T00:16:01.593Z,91.20
2018-05-17T00:18:29.168Z,91.10
2018-05-17T00:20:56.761Z,90.80
2018-05-17T00:23:24.325Z,90.90
2018-05-17T00:25:53.026Z,91.00
2018-05-17T00:28:20.634Z,91.10
2018-05-17T00:30:48.651Z,91.20
2018-05-17T00:33:16.218Z,91.30
2018-05-17T00:35:43.899Z,91.40
2018-05-17T00:38:11.381Z,91.50
2018-05-17T00:40:38.954Z,91.50
2018-05-17T00:43:06.546Z,91.80
2018-05-17T00:45:34.111Z,91.40
2018-05-17T00:48:01.683Z,91.30
2018-05-17T00:50:29.281Z,91.30
2018-05-17T00:53:28.683Z,91.30
2018-05-17T00:55:57.056Z,91.30
2018-05-17T00:58:24.626Z,91.30
2018-05-17T01:00:52.954Z,91.30
2018-05-17T01:03:20.572Z,91.30
2018-05-17T01:05:48.130Z,91.30
2018-05-17T01:08:15.733Z,91.30
2018-05-17T01:10:44.539Z,91.30
2018-05-17T01:13:12.107Z,91.30
2018-05-17T01:15:39.679Z,91.40
2018-05-17T01:18:07.286Z,91.40
2018-05-17T01:20:34.848Z,91.60
2018-05-17T01:23:02.421Z,91.40
2018-05-17T01:25:30.016Z,91.40
2018-05-17T01:27:57.585Z,91.50
2018-05-17T01:30:25.157Z,91.40
2018-05-17T01:32:52.787Z,91.50
2018-05-17T01:35:20.351Z,91.50
2018-05-17T01:38:25.254Z,91.50
2018-05-17T01:40:53.159Z,91.40
2018-05-17T01:43:20.725Z,91.40
2018-05-17T01:45:48.319Z,91.40
2018-05-17T01:48:16.651Z,91.30
2018-05-17T01:50:44.229Z,91.30
2018-05-17T01:53:11.831Z,91.20
2018-05-17T01:55:40.473Z,91.10
2018-05-17T01:58:08.030Z,91.10
2018-05-17T02:00:35.618Z,90.90
2018-05-17T02:03:03.189Z,90.60
2018-05-17T02:05:30.752Z,90.40
2018-05-17T02:07:58.364Z,90.50
2018-05-17T02:10:25.934Z,90.50
2018-05-17T02:12:53.500Z,90.50
2018-05-17T02:15:22.812Z,90.40
2018-05-17T02:17:50.454Z,90.40
2018-05-17T02:20:17.954Z,90.40
2018-05-17T02:22:45.552Z,90.20
2018-05-17T02:25:13.121Z,90.20
2018-05-17T02:27:40.803Z,90.20
2018-05-17T02:30:08.395Z,90.10
2018-05-17T02:32:35.971Z,90.00
2018-05-17T02:35:04.312Z,89.20
2018-05-17T02:37:31.946Z,89.20
2018-05-17T02:39:59.509Z,88.90
2018-05-17T02:42:27.075Z,88.80
2018-05-17T02:44:54.676Z,88.80
2018-05-17T02:47:22.295Z,88.50
2018-05-17T02:49:49.860Z,88.60
2018-05-17T02:52:17.470Z,88.00
2018-05-17T02:54:45.039Z,87.20
2018-05-17T02:57:12.594Z,87.00
2018-05-17T02:59:40.616Z,86.80
2018-05-17T03:02:08.411Z,86.90
2018-05-17T03:04:35.980Z,87.10
2018-05-17T03:07:03.576Z,87.10
2018-05-17T03:09:31.911Z,86.70
2018-05-17T03:11:59.493Z,86.60
2018-05-17T03:14:27.130Z,86.40
2018-05-17T03:16:54.679Z,84.00
2018-05-17T03:19:22.238Z,83.40
2018-05-17T03:21:49.860Z,83.90
2018-05-17T03:24:18.194Z,83.70
2018-05-17T03:26:45.765Z,83.70
2018-05-17T03:29:13.367Z,83.90
2018-05-17T03:31:41.721Z,84.50
2018-05-17T03:34:09.288Z,84.40
2018-05-17T03:36:36.879Z,84.40
2018-05-17T03:39:04.432Z,84.90
2018-05-17T03:41:32.764Z,85.70
2018-05-17T03:44:00.836Z,85.70
2018-05-17T03:46:28.404Z,86.00
2018-05-17T03:48:55.974Z,86.20
2018-05-17T03:51:23.608Z,86.40
2018-05-17T03:53:51.164Z,86.30
2018-05-17T03:56:18.731Z,86.30
2018-05-17T03:58:46.345Z,86.40
2018-05-17T04:01:50.542Z,86.70
2018-05-17T04:04:55.342Z,87.00
2018-05-17T04:07:22.927Z,87.10
2018-05-17T04:09:50.888Z,87.50
2018-05-17T04:12:18.751Z,87.20
2018-05-17T04:14:46.322Z,87.10
2018-05-17T04:17:13.900Z,87.30
2018-05-17T04:19:41.561Z,87.50
2018-05-17T04:22:09.077Z,88.00
2018-05-17T04:24:36.628Z,87.40
2018-05-17T04:27:04.255Z,87.30
2018-05-17T04:29:31.815Z,87.30
2018-05-17T04:31:59.369Z,87.20
2018-05-17T04:34:26.973Z,87.60
2018-05-17T04:36:54.546Z,87.90
2018-05-17T04:39:22.098Z,88.00
2018-05-17T04:41:49.716Z,87.20
2018-05-17T04:44:17.329Z,87.00
2018-05-17T04:46:44.843Z,86.60
2018-05-17T04:49:12.481Z,86.50
2018-05-17T04:51:40.039Z,86.20
2018-05-17T04:54:07.645Z,86.30
2018-05-17T04:56:35.244Z,86.40
2018-05-17T04:59:02.819Z,86.20
2018-05-17T05:01:33.313Z,86.20
2018-05-17T05:04:00.913Z,86.20
2018-05-17T05:06:28.470Z,86.10
2018-05-17T05:08:56.031Z,86.20
2018-05-17T05:11:23.652Z,86.30
2018-05-17T05:13:51.997Z,86.20
2018-05-17T05:16:19.573Z,86.20
2018-05-17T05:18:47.513Z,85.90
2018-05-17T05:21:14.933Z,86.20
2018-05-17T05:23:42.496Z,85.50
2018-05-17T05:26:10.132Z,85.30
2018-05-17T05:28:38.450Z,85.40
2018-05-17T05:31:06.021Z,85.40
2018-05-17T05:33:33.645Z,85.20
2018-05-17T05:36:02.012Z,85.80
2018-05-17T05:38:30.335Z,84.90
2018-05-17T05:40:57.982Z,85.20
2018-05-17T05:43:25.544Z,85.10
2018-05-17T05:45:53.099Z,84.00
2018-05-17T05:48:20.704Z,83.20
2018-05-17T05:50:48.259Z,82.10
2018-05-17T05:53:15.821Z,81.00
2018-05-17T05:55:43.467Z,80.60
2018-05-17T05:58:11.033Z,80.30
2018-05-17T06:00:38.599Z,79.70
2018-05-17T06:03:07.139Z,79.40
2018-05-17T06:05:35.457Z,79.10
2018-05-17T06:08:03.045Z,79.00
2018-05-17T06:10:30.654Z,78.40
2018-05-17T06:12:58.217Z,79.10
2018-05-17T06:15:25.813Z,79.40
2018-05-17T06:17:53.915Z,78.90
2018-05-17T06:20:21.483Z,78.80
2018-05-17T06:22:49.047Z,78.70
2018-05-17T06:25:17.601Z,78.30
2018-05-17T06:27:45.178Z,78.50
2018-05-17T06:30:12.811Z,77.80
2018-05-17T06:32:44.927Z,77.80
2018-05-17T06:35:14.324Z,77.00
2018-05-17T06:37:42.017Z,77.50
2018-05-17T06:40:13.882Z,77.40
2018-05-17T06:42:59.705Z,77.20
2018-05-17T06:45:44.429Z,77.10
2018-05-17T06:48:09.754Z,76.90
2018-05-17T06:51:06.396Z,76.80
2018-05-17T06:53:24.783Z,76.30
2018-05-17T06:55:41.685Z,75.10
2018-05-17T06:58:16.766Z,75.00
2018-05-17T07:00:46.751Z,75.30
2018-05-17T07:03:25.183Z,74.50
2018-05-17T07:06:11.045Z,74.90
2018-05-17T07:08:42.817Z,75.40
2018-05-17T07:11:18.194Z,74.60
2018-05-17T07:13:50.306Z,75.00
2018-05-17T07:16:22.406Z,74.90
2018-05-17T07:23:59.372Z,74.10
2018-05-17T07:26:33.959Z,74.10
2018-05-17T07:29:25.770Z,74.00
2018-05-17T07:31:54.394Z,73.50
2018-05-17T07:34:26.753Z,73.60
2018-05-17T07:37:10.080Z,73.50
2018-05-17T07:39:42.857Z,73.60
2018-05-17T07:42:06.229Z,73.50
2018-05-17T07:44:37.126Z,74.00
2018-05-17T07:47:09.399Z,73.40
2018-05-17T07:49:37.344Z,72.60
2018-05-17T07:52:30.362Z,73.60
2018-05-17T07:54:37.220Z,72.20
2018-05-17T08:02:07.553Z,70.60
2018-05-17T08:04:33.304Z,70.50
2018-05-17T08:07:01.098Z,69.30
2018-05-17T08:09:28.844Z,67.70
2018-05-17T08:11:57.106Z,66.60
2018-05-17T08:14:24.708Z,66.50
2018-05-17T08:16:54.154Z,66.20
2018-05-17T08:19:21.714Z,66.20
2018-05-17T08:21:49.469Z,66.10
2018-05-17T08:24:16.956Z,66.20
2018-05-17T08:26:44.520Z,65.10
2018-05-17T08:29:12.323Z,65.60
2018-05-17T08:31:40.660Z,66.10
2018-05-17T08:34:08.258Z,65.70
2018-05-17T08:36:36.021Z,65.00
2018-05-17T08:39:03.490Z,65.50
2018-05-17T08:41:31.077Z,65.00
2018-05-17T08:43:58.707Z,65.10
2018-05-17T08:46:26.330Z,64.50
2018-05-17T08:48:53.929Z,64.80
2018-05-17T08:51:22.268Z,64.00
2018-05-17T08:53:49.899Z,64.00
2018-05-17T08:56:17.466Z,63.60
2018-05-17T08:58:45.031Z,64.10
2018-05-17T09:01:12.649Z,63.80
2018-05-17T09:03:40.248Z,63.80
2018-05-17T09:06:07.839Z,63.90
2018-05-17T09:08:35.919Z,65.50
2018-05-17T09:11:03.482Z,63.80
2018-05-17T09:13:31.083Z,63.70
2018-05-17T09:16:00.001Z,63.00
2018-05-17T09:18:26.285Z,62.90
2018-05-17T09:20:53.863Z,63.00
2018-05-17T09:23:22.339Z,61.40
2018-05-17T09:25:49.959Z,61.30
2018-05-17T09:28:17.523Z,61.10
2018-05-17T09:30:45.178Z,60.30
2018-05-17T09:33:14.224Z,60.70
2018-05-17T09:35:40.520Z,61.00
2018-05-17T09:38:07.876Z,61.40
2018-05-17T09:40:35.439Z,60.50
2018-05-17T09:43:03.015Z,58.60
2018-05-17T09:45:31.111Z,58.00
2018-05-17T09:47:59.436Z,58.50
2018-05-17T09:50:28.159Z,58.40
2018-05-17T09:52:56.726Z,58.50
2018-05-17T09:55:24.290Z,57.90
2018-05-17T09:57:51.857Z,57.80
2018-05-17T10:00:22.202Z,57.10
2018-05-17T10:02:49.753Z,56.10
2018-05-17T10:05:17.318Z,56.50
2018-05-17T10:07:44.968Z,56.20
2018-05-17T10:10:12.503Z,55.80
2018-05-17T10:12:40.057Z,56.40
2018-05-17T10:15:07.668Z,56.40
2018-05-17T10:17:35.242Z,55.80
2018-05-17T10:20:03.569Z,55.80
2018-05-17T10:22:31.530Z,55.80
2018-05-17T10:24:59.091Z,56.50
2018-05-17T10:27:26.656Z,56.70
2018-05-17T10:29:54.649Z,56.20
2018-05-17T10:32:22.220Z,55.90
2018-05-17T10:34:49.785Z,55.00
2018-05-17T10:37:18.265Z,55.00
2018-05-17T10:39:45.839Z,54.40
2018-05-17T10:42:13.472Z,54.40
2018-05-17T10:44:41.792Z,53.60
2018-05-17T10:47:10.131Z,52.80
2018-05-17T10:49:37.694Z,52.70
2018-05-17T10:52:05.313Z,53.20
2018-05-17T10:54:32.920Z,52.90
2018-05-17T10:57:00.497Z,53.00
2018-05-17T10:59:28.151Z,50.40
2018-05-17T11:01:55.715Z,51.40
2018-05-17T11:04:23.294Z,50.90
2018-05-17T11:06:50.919Z,50.30
2018-05-17T11:09:18.501Z,49.00
2018-05-17T11:11:46.057Z,48.80
2018-05-17T11:14:13.675Z,48.90
2018-05-17T11:16:41.243Z,49.00
2018-05-17T11:19:08.804Z,48.60
2018-05-17T11:21:36.441Z,48.70
2018-05-17T11:24:04.774Z,48.40
2018-05-17T11:26:32.381Z,48.40
2018-05-17T11:29:00.755Z,47.30
2018-05-17T11:31:29.499Z,46.80
2018-05-17T11:33:57.061Z,46.70
2018-05-17T11:36:26.081Z,46.60
2018-05-17T11:38:53.656Z,46.40
2018-05-17T11:41:21.250Z,46.30
2018-05-17T11:43:48.976Z,45.60
2018-05-17T11:46:16.529Z,45.00
2018-05-17T11:48:44.120Z,44.50
2018-05-17T11:51:12.508Z,43.20
2018-05-17T11:53:40.098Z,43.20
2018-05-17T11:56:07.679Z,42.90
2018-05-17T11:58:36.302Z,42.40
2018-05-17T12:01:08.122Z,42.00
2018-05-17T12:03:34.460Z,41.40
2018-05-17T12:06:02.187Z,41.40
2018-05-17T12:08:30.016Z,41.80
2018-05-17T12:10:57.593Z,41.90
2018-05-17T12:13:26.336Z,41.90
2018-05-17T12:15:54.010Z,41.90
2018-05-17T12:18:21.722Z,41.70
2018-05-17T12:20:49.716Z,41.60
2018-05-17T12:23:17.586Z,42.10
2018-05-17T12:25:45.390Z,41.90
2018-05-17T12:28:13.186Z,41.90
2018-05-17T12:30:40.807Z,41.20
2018-05-17T12:33:08.480Z,42.60
2018-05-17T12:35:36.556Z,42.80
2018-05-17T12:38:04.141Z,42.30
2018-05-17T12:40:31.707Z,42.20
2018-05-17T12:43:00.080Z,43.90
2018-05-17T12:45:27.640Z,43.90
2018-05-17T12:47:55.992Z,43.30
2018-05-17T12:50:23.602Z,43.20
2018-05-17T12:52:51.198Z,42.10
2018-05-17T12:55:18.729Z,43.20
2018-05-17T12:57:46.389Z,43.50
2018-05-17T13:00:15.050Z,43.80
2018-05-17T13:02:42.595Z,42.80
2018-05-17T13:05:25.220Z,42.60
2018-05-17T13:07:52.805Z,41.90
2018-05-17T13:10:20.396Z,42.40
2018-05-17T13:12:48.419Z,42.90
2018-05-17T13:15:16.752Z,41.50
2018-05-17T13:17:44.314Z,41.40
2018-05-17T13:20:12.017Z,40.70
2018-05-17T13:22:39.584Z,40.60
2018-05-17T13:25:07.937Z,40.90
2018-05-17T13:27:35.546Z,40.90
2018-05-17T13:30:03.150Z,42.30
2018-05-17T13:32:30.714Z,40.30
2018-05-17T13:34:58.317Z,39.80
2018-05-17T13:37:26.763Z,39.40
2018-05-17T13:39:54.230Z,39.40
2018-05-17T13:42:22.673Z,39.20
2018-05-17T13:44:50.235Z,38.90
2018-05-17T13:47:17.804Z,38.20
2018-05-17T13:49:45.467Z,38.60
2018-05-17T13:52:13.025Z,38.70
2018-05-17T13:54:40.606Z,39.20
2018-05-17T13:57:09.086Z,38.60
2018-05-17T13:59:36.651Z,39.60
2018-05-17T14:02:04.323Z,39.40
2018-05-17T14:04:32.813Z,39.20
2018-05-17T14:07:00.379Z,39.50
2018-05-17T14:09:27.953Z,39.00
2018-05-17T14:11:56.001Z,38.80
2018-05-17T14:14:23.586Z,38.20
2018-05-17T14:16:51.138Z,37.50
2018-05-17T14:19:18.763Z,38.50
2018-05-17T14:21:46.325Z,39.10
2018-05-17T14:24:13.889Z,39.40
2018-05-17T14:26:42.353Z,37.30
2018-05-17T14:29:09.917Z,36.90
2018-05-17T14:34:05.093Z,38.20
2018-05-17T14:36:32.678Z,38.20
2018-05-17T14:39:00.237Z,38.60
2018-05-17T14:41:28.620Z,36.80
2018-05-17T14:43:56.188Z,36.70
2018-05-17T14:46:23.749Z,35.20
2018-05-17T14:48:51.359Z,34.80
2018-05-17T14:51:18.931Z,33.40
2018-05-17T14:53:46.504Z,32.70
2018-05-17T14:56:14.957Z,33.40
2018-05-17T14:58:42.516Z,33.20
2018-05-17T15:01:10.088Z,33.20
2018-05-17T15:03:37.707Z,33.50
2018-05-17T15:06:05.320Z,33.70
2018-05-17T15:08:32.903Z,33.40
2018-05-17T15:11:00.864Z,32.20
2018-05-17T15:13:28.431Z,33.40
2018-05-17T15:15:55.983Z,31.60
2018-05-17T15:18:23.606Z,30.50
2018-05-17T15:20:51.165Z,29.40
2018-05-17T15:23:18.727Z,30.10
2018-05-17T15:25:46.334Z,29.60
2018-05-17T15:28:13.897Z,30.10
2018-05-17T15:30:41.465Z,30.90
2018-05-17T15:33:09.510Z,30.90
2018-05-17T15:35:37.067Z,31.90
2018-05-17T15:38:04.637Z,32.80
2018-05-17T15:40:32.249Z,33.80
2018-05-17T15:42:59.812Z,34.40
2018-05-17T15:45:27.380Z,33.90
2018-05-17T15:47:55.064Z,33.90
2018-05-17T15:50:22.624Z,34.10
2018-05-17T15:52:50.199Z,33.40
2018-05-17T15:55:18.270Z,31.70
2018-05-17T15:57:45.868Z,30.90
2018-05-17T16:00:13.430Z,28.30
2018-05-17T16:02:41.061Z,28.90
2018-05-17T16:05:08.627Z,28.90
2018-05-17T16:07:36.190Z,28.80
2018-05-17T16:10:04.252Z,29.50
2018-05-17T16:12:31.822Z,30.10
2018-05-17T16:14:59.421Z,30.10
2018-05-17T16:17:26.999Z,30.90
2018-05-17T16:19:54.579Z,31.50
2018-05-17T16:22:22.124Z,31.50
2018-05-17T16:24:49.783Z,31.20
2018-05-17T16:27:17.364Z,30.70
2018-05-17T16:29:44.904Z,31.10
2018-05-17T16:32:12.507Z,31.70
2018-05-17T16:34:40.067Z,32.00
2018-05-17T16:37:07.626Z,32.20
2018-05-17T16:39:35.584Z,32.00
2018-05-17T16:42:03.143Z,31.50
2018-05-17T16:44:30.713Z,31.70
2018-05-17T16:46:58.699Z,31.30
2018-05-17T16:49:26.303Z,32.10
2018-05-17T16:51:53.828Z,31.40
2018-05-17T16:54:21.513Z,31.70
2018-05-17T16:56:49.002Z,32.30
2018-05-17T16:59:16.573Z,32.40
2018-05-17T17:01:44.216Z,32.70
2018-05-17T17:04:11.847Z,33.00
2018-05-17T17:06:39.422Z,33.40
2018-05-17T17:09:07.792Z,34.70
2018-05-17T17:11:36.124Z,35.60
2018-05-17T17:14:03.684Z,35.60
2018-05-17T17:16:31.330Z,35.60
2018-05-17T17:18:58.903Z,34.80
2018-05-17T17:21:26.453Z,35.10
2018-05-17T17:23:54.637Z,34.70
2018-05-17T17:26:22.201Z,34.70
2018-05-17T17:28:49.760Z,35.00
2018-05-17T17:31:17.391Z,35.30
2018-05-17T17:33:45.721Z,36.00
2018-05-17T17:36:13.289Z,35.30
2018-05-17T17:38:42.652Z,35.80
2018-05-17T17:41:10.188Z,36.20
2018-05-17T17:43:38.537Z,37.20
2018-05-17T17:46:06.182Z,37.20
2018-05-17T17:51:01.322Z,37.50
2018-05-17T17:53:28.972Z,38.00
2018-05-17T17:55:56.527Z,38.40
2018-05-17T17:58:24.111Z,38.60
2018-05-17T18:00:51.706Z,39.20
2018-05-17T18:03:20.035Z,40.60
2018-05-17T18:05:47.592Z,40.60
2018-05-17T18:08:15.204Z,40.80
2018-05-17T18:10:43.543Z,41.20
2018-05-17T18:13:11.104Z,41.20
2018-05-17T18:15:38.748Z,41.50
2018-05-17T18:18:06.314Z,42.00
2018-05-17T18:20:33.879Z,42.40
2018-05-17T18:23:01.496Z,42.70
2018-05-17T18:25:29.828Z,43.20
2018-05-17T18:27:57.396Z,43.20
2018-05-17T18:30:25.014Z,43.60
2018-05-17T18:32:52.578Z,43.90
2018-05-17T18:35:20.149Z,44.20
2018-05-17T18:37:48.453Z,44.50
2018-05-17T18:40:16.018Z,44.80
2018-05-17T18:42:43.582Z,44.90
2018-05-17T18:45:12.170Z,45.10
2018-05-17T18:47:39.735Z,45.30
2018-05-17T18:50:07.297Z,45.40
2018-05-17T18:52:35.448Z,45.60
2018-05-17T18:55:03.007Z,45.70
2018-05-17T18:57:30.569Z,45.80
2018-05-17T18:59:58.272Z,46.00
2018-05-17T19:02:26.622Z,46.50
2018-05-17T19:04:54.195Z,46.40
2018-05-17T19:07:21.809Z,46.30
2018-05-17T19:09:49.385Z,46.30
2018-05-17T19:12:16.953Z,46.20
2018-05-17T19:14:44.818Z,46.10
2018-05-17T19:17:12.374Z,46.30
2018-05-17T19:19:39.940Z,46.50
2018-05-17T19:22:07.573Z,46.90
2018-05-17T19:24:35.143Z,47.10
2018-05-17T19:27:02.709Z,47.40
2018-05-17T19:29:30.315Z,47.70
2018-05-17T19:31:57.874Z,47.90
2018-05-17T19:34:25.451Z,48.10
2018-05-17T19:36:53.093Z,48.20
2018-05-17T19:39:20.662Z,48.40
2018-05-17T19:41:49.370Z,48.50
2018-05-17T19:44:17.512Z,49.00
2018-05-17T19:46:45.078Z,48.50
2018-05-17T19:49:12.638Z,48.90
2018-05-17T19:51:40.619Z,49.20
2018-05-17T19:54:08.165Z,49.30
2018-05-17T19:56:35.726Z,49.40
2018-05-17T19:59:03.328Z,49.80
2018-05-17T20:01:31.670Z,49.60
2018-05-17T20:03:59.233Z,49.50
2018-05-17T20:06:26.850Z,49.70
2018-05-17T20:08:54.753Z,49.90
2018-05-17T20:11:22.354Z,50.00
2018-05-17T20:13:50.659Z,50.20
2018-05-17T20:16:18.186Z,50.40
2018-05-17T20:18:45.849Z,50.70
2018-05-17T20:21:13.895Z,51.00
2018-05-17T20:23:41.431Z,51.40
2018-05-17T20:26:11.941Z,51.70
2018-05-17T20:28:40.312Z,52.50
2018-05-17T20:31:08.650Z,52.90
2018-05-17T20:33:36.212Z,52.90
2018-05-17T20:36:04.403Z,53.30
2018-05-17T20:38:31.963Z,53.30
2018-05-17T20:40:59.520Z,53.30
2018-05-17T20:43:27.128Z,53.20
2018-05-17T20:45:57.622Z,53.30
2018-05-17T20:48:25.189Z,53.00
2018-05-17T20:50:53.569Z,53.50
2018-05-17T20:53:21.172Z,52.90
2018-05-17T20:55:48.740Z,53.40
2018-05-17T20:58:16.359Z,53.60
2018-05-17T21:00:44.685Z,54.50
2018-05-17T21:03:12.263Z,53.90
2018-05-17T21:05:39.879Z,54.20
2018-05-17T21:08:07.443Z,54.50
2018-05-17T21:10:35.016Z,54.50
2018-05-17T21:13:02.620Z,54.60
2018-05-17T21:15:30.184Z,55.10
2018-05-17T21:17:57.770Z,55.30
2018-05-17T21:20:26.143Z,56.10
2018-05-17T21:22:53.707Z,55.90
2018-05-17T21:25:22.467Z,56.20
2018-05-17T21:27:50.108Z,56.30
2018-05-17T21:30:17.667Z,56.30
2018-05-17T21:32:45.230Z,56.30
2018-05-17T21:35:12.833Z,56.20
2018-05-17T21:37:40.390Z,56.20
2018-05-17T21:40:07.946Z,56.50
2018-05-17T21:42:35.997Z,56.50
2018-05-17T21:45:03.563Z,57.00
2018-05-17T21:47:31.124Z,57.10
2018-05-17T21:49:59.222Z,57.30
2018-05-17T21:52:26.782Z,57.60
2018-05-17T21:54:54.350Z,58.20
2018-05-17T21:57:22.419Z,58.50
2018-05-17T21:59:49.977Z,58.70
2018-05-17T22:02:17.545Z,58.10
2018-05-17T22:04:45.145Z,58.20
2018-05-17T22:07:12.708Z,58.90
2018-05-17T22:09:40.270Z,58.30
2018-05-17T22:12:07.878Z,58.40
2018-05-17T22:14:35.448Z,59.00
2018-05-17T22:17:03.017Z,60.30
2018-05-17T22:19:30.638Z,62.00
2018-05-17T22:21:58.203Z,60.80
2018-05-17T22:24:25.756Z,62.10
2018-05-17T22:26:53.343Z,62.80
2018-05-17T22:29:20.914Z,63.30
2018-05-17T22:31:48.478Z,64.00
2018-05-17T22:34:16.082Z,65.00
2018-05-17T22:36:43.642Z,64.60
2018-05-17T22:39:11.210Z,65.00
2018-05-17T22:41:38.806Z,65.50
2018-05-17T22:44:06.371Z,65.80
2018-05-17T22:46:33.957Z,66.60
2018-05-17T22:49:02.324Z,67.00
2018-05-17T22:51:29.891Z,67.00
2018-05-17T22:53:57.464Z,65.50
2018-05-17T22:57:02.805Z,64.00
2018-05-17T22:59:30.356Z,63.90
2018-05-17T23:01:57.915Z,64.00
2018-05-17T23:04:25.627Z,64.20
2018-05-17T23:06:53.555Z,64.70
2018-05-17T23:09:21.069Z,66.80
2018-05-17T23:11:48.666Z,66.10
2018-05-17T23:14:16.230Z,66.40
2018-05-17T23:16:43.812Z,67.20
2018-05-17T23:19:12.193Z,69.70
2018-05-17T23:21:40.522Z,68.80
2018-05-17T23:24:09.219Z,68.80
2018-05-17T23:26:36.818Z,69.00
2018-05-17T23:29:04.381Z,69.70
2018-05-17T23:31:31.944Z,70.00
2018-05-17T23:34:00.304Z,70.60
2018-05-17T23:36:27.907Z,70.60
2018-05-17T23:38:55.476Z,70.90
2018-05-17T23:41:47.930Z,71.40
2018-05-17T23:44:15.493Z,71.80
2018-05-17T23:46:43.081Z,70.60
2018-05-17T23:49:13.603Z,71.00
2018-05-17T23:51:41.165Z,71.50
2018-05-17T23:54:08.723Z,72.30
2018-05-17T23:56:36.325Z,72.90
2018-05-17T23:59:04.676Z,73.80
